Time;durP1;ratioP1;P1;durP2;ratioP2;P2;SDS_P1;SDS_P2;PMS_P1;PMS_P2;Temp;Humidity;BMP_temperature;BMP_pressure;BME280_temperature;BME280_humidity;BME280_pressure;Samples;Min_cycle;Max_cycle;Signal;HPM_P1;HPM_P2
2022/05/10 00:00:30;;;;;;;5.50;4.10;;;11.30;99.90;;;;;;5120093;27;20183;-67
2022/05/10 00:02:58;;;;;;;5.53;3.67;;;11.30;99.90;;;;;;5125704;27;20963;-69
2022/05/10 00:05:37;;;;;;;5.93;3.90;;;11.30;99.90;;;;;;5121482;27;20256;-69
2022/05/10 00:08:06;;;;;;;8.57;4.57;;;11.20;99.90;;;;;;5114847;27;20576;-69
2022/05/10 00:10:33;;;;;;;14.27;6.80;;;11.30;99.90;;;;;;5116834;27;20437;-69
2022/05/10 00:12:59;;;;;;;10.07;5.00;;;11.20;99.90;;;;;;5120331;27;20492;-69
2022/05/10 00:15:25;;;;;;;9.57;6.13;;;11.20;99.90;;;;;;5121942;27;20856;-69
2022/05/10 00:17:51;;;;;;;9.57;4.93;;;11.10;99.90;;;;;;5122933;27;20444;-69
2022/05/10 00:20:23;;;;;;;8.00;4.53;;;11.10;99.90;;;;;;5128756;27;20187;-69
2022/05/10 00:22:49;;;;;;;10.77;5.17;;;11.00;99.90;;;;;;5118038;27;20436;-69
2022/05/10 00:25:21;;;;;;;9.07;5.73;;;11.00;99.90;;;;;;5106834;27;20839;-69
2022/05/10 00:27:47;;;;;;;11.83;6.00;;;11.00;99.90;;;;;;5117649;27;20436;-69
2022/05/10 00:30:13;;;;;;;10.77;4.60;;;10.90;99.90;;;;;;5119353;27;20497;-69
2022/05/10 00:32:39;;;;;;;9.27;5.07;;;10.90;99.90;;;;;;5122956;27;20191;-69
2022/05/10 00:35:10;;;;;;;6.47;4.27;;;10.90;99.90;;;;;;5116309;27;20206;-69
2022/05/10 00:37:36;;;;;;;15.83;5.77;;;10.90;99.90;;;;;;5115558;27;20788;-71
2022/05/10 00:40:02;;;;;;;13.50;5.47;;;10.80;99.90;;;;;;5123746;27;21108;-68
2022/05/10 00:42:35;;;;;;;9.53;4.47;;;10.70;99.90;;;;;;5118200;27;20225;-70
2022/05/10 00:45:15;;;;;;;9.20;5.60;;;10.70;99.90;;;;;;5121501;27;20978;-70
2022/05/10 00:47:51;;;;;;;8.57;5.70;;;10.70;99.90;;;;;;5122654;27;20428;-69
2022/05/10 00:50:37;;;;;;;13.30;4.23;;;10.70;99.90;;;;;;5118521;27;20428;-68
2022/05/10 00:53:19;;;;;;;8.03;3.97;;;10.80;99.90;;;;;;5121138;27;20420;-69
2022/05/10 00:56:01;;;;;;;7.97;4.87;;;10.70;99.90;;;;;;5121695;27;20501;-69
2022/05/10 00:58:36;;;;;;;8.80;4.93;;;10.70;99.90;;;;;;5105904;27;20476;-69
2022/05/10 01:01:04;;;;;;;8.43;5.07;;;10.70;99.90;;;;;;5121009;27;20424;-69
2022/05/10 01:03:42;;;;;;;10.27;4.60;;;10.70;99.90;;;;;;5107856;27;20431;-69
2022/05/10 01:06:08;;;;;;;5.77;4.10;;;10.70;99.90;;;;;;5105940;27;20786;-69
2022/05/10 01:09:01;;;;;;;12.63;5.60;;;10.70;99.90;;;;;;5114469;27;20422;-71
2022/05/10 01:11:35;;;;;;;11.13;5.63;;;10.70;99.90;;;;;;5117702;27;20187;-69
2022/05/10 01:14:10;;;;;;;10.00;5.93;;;10.60;99.90;;;;;;5114405;27;20451;-69
2022/05/10 01:16:36;;;;;;;9.87;5.43;;;10.50;99.90;;;;;;5118139;27;20502;-69
2022/05/10 01:19:01;;;;;;;10.50;4.57;;;10.40;99.90;;;;;;5122466;27;20432;-69
2022/05/10 01:21:55;;;;;;;10.47;4.73;;;10.40;99.90;;;;;;5117542;27;20194;-69
2022/05/10 01:24:48;;;;;;;9.77;5.03;;;10.30;99.90;;;;;;5111977;27;20183;-69
2022/05/10 01:27:46;;;;;;;12.83;4.70;;;10.40;99.90;;;;;;5113548;27;20440;-70
2022/05/10 01:30:24;;;;;;;6.63;4.60;;;10.40;99.90;;;;;;5100326;27;20468;-69
2022/05/10 01:35:56;;;;;;;10.07;5.37;;;10.40;99.90;;;;;;5126406;27;20439;-69
2022/05/10 01:38:28;;;;;;;7.40;4.60;;;10.30;99.90;;;;;;5121485;27;20429;-69
2022/05/10 01:41:01;;;;;;;8.03;5.30;;;10.20;99.90;;;;;;5118254;27;20540;-69
2022/05/10 01:43:38;;;;;;;9.93;5.20;;;10.20;99.90;;;;;;5121880;27;20437;-69
2022/05/10 01:46:15;;;;;;;9.87;5.23;;;10.10;99.90;;;;;;5079420;28;20457;-70
2022/05/10 01:48:45;;;;;;;11.97;5.50;;;10.10;99.90;;;;;;5119839;27;20427;-70
2022/05/10 01:51:18;;;;;;;12.57;5.67;;;10.10;99.90;;;;;;5122805;27;20955;-69
2022/05/10 01:53:45;;;;;;;10.53;5.50;;;10.10;99.90;;;;;;5118788;27;20461;-68
2022/05/10 01:56:19;;;;;;;8.83;5.10;;;10.10;99.90;;;;;;5122068;27;20524;-69
2022/05/10 01:58:45;;;;;;;9.13;5.93;;;10.10;99.90;;;;;;5117570;27;20525;-68
2022/05/10 02:01:17;;;;;;;12.33;6.07;;;10.00;99.90;;;;;;5122783;27;20536;-71
2022/05/10 02:04:03;;;;;;;8.87;5.37;;;10.00;99.90;;;;;;5108553;27;20433;-67
2022/05/10 02:06:46;;;;;;;12.80;6.47;;;10.00;99.90;;;;;;5119660;27;20473;-69
2022/05/10 02:09:34;;;;;;;8.83;4.60;;;10.00;99.90;;;;;;5125178;27;21016;-69
2022/05/10 02:12:16;;;;;;;12.53;4.40;;;10.00;99.90;;;;;;5124090;27;20452;-69
2022/05/10 02:14:47;;;;;;;7.60;4.50;;;10.00;99.90;;;;;;5112876;27;20650;-69
2022/05/10 02:17:14;;;;;;;9.00;5.63;;;10.00;99.90;;;;;;5122137;27;20429;-69
2022/05/10 02:19:53;;;;;;;9.73;5.17;;;10.00;99.90;;;;;;5124604;27;20457;-68
2022/05/10 02:22:30;;;;;;;8.87;4.70;;;10.00;99.90;;;;;;5099217;27;20531;-69
2022/05/10 02:25:03;;;;;;;7.20;5.00;;;9.90;99.90;;;;;;5084073;28;20557;-69
2022/05/10 02:27:35;;;;;;;8.87;4.60;;;9.90;99.90;;;;;;5105162;27;21069;-69
2022/05/10 02:30:14;;;;;;;8.47;4.63;;;9.90;99.90;;;;;;5120537;27;21190;-68
2022/05/10 02:33:07;;;;;;;9.00;5.10;;;9.80;99.90;;;;;;5111602;27;20728;-69
2022/05/10 02:35:40;;;;;;;8.70;5.37;;;9.80;99.90;;;;;;5116590;27;20538;-69
2022/05/10 02:38:08;;;;;;;9.47;5.03;;;9.80;99.90;;;;;;5119569;27;21145;-68
2022/05/10 02:40:33;;;;;;;10.90;5.40;;;9.80;99.90;;;;;;5115505;27;20590;-70
2022/05/10 02:43:00;;;;;;;8.53;5.07;;;9.70;99.90;;;;;;5113653;27;20548;-70
2022/05/10 02:45:27;;;;;;;9.30;5.23;;;9.70;99.90;;;;;;5119621;27;20203;-69
2022/05/10 02:47:52;;;;;;;9.80;5.37;;;9.70;99.90;;;;;;5123221;27;20439;-70
2022/05/10 02:50:29;;;;;;;10.47;5.30;;;9.70;99.90;;;;;;5123774;27;20420;-68
2022/05/10 02:52:55;;;;;;;9.63;5.50;;;9.60;99.90;;;;;;5116144;27;20218;-69
2022/05/10 02:55:38;;;;;;;8.57;4.80;;;9.50;99.90;;;;;;5100584;27;20503;-69
2022/05/10 02:58:12;;;;;;;13.43;6.13;;;9.50;99.90;;;;;;5116887;27;20532;-70
2022/05/10 03:00:38;;;;;;;10.13;5.67;;;9.50;99.90;;;;;;5100935;27;20804;-69
2022/05/10 03:03:09;;;;;;;9.67;5.07;;;9.50;99.90;;;;;;5117592;27;20434;-70
2022/05/10 03:05:35;;;;;;;8.00;5.23;;;9.50;99.90;;;;;;5113273;27;20445;-68
2022/05/10 03:08:01;;;;;;;15.37;6.37;;;9.50;99.90;;;;;;5114449;27;20425;-69
2022/05/10 03:10:26;;;;;;;13.83;5.73;;;9.50;99.90;;;;;;5113017;27;20899;-69
2022/05/10 03:12:52;;;;;;;11.70;5.80;;;9.50;99.90;;;;;;5112410;27;20393;-69
2022/05/10 03:15:17;;;;;;;10.67;6.27;;;9.50;99.90;;;;;;5107569;27;20227;-70
2022/05/10 03:17:43;;;;;;;8.17;5.43;;;9.50;99.90;;;;;;5115897;27;20187;-69
2022/05/10 03:20:09;;;;;;;12.07;6.63;;;9.50;99.90;;;;;;5118846;27;20186;-67
2022/05/10 03:22:35;;;;;;;11.90;5.93;;;9.50;99.90;;;;;;5114778;27;20191;-69
2022/05/10 03:25:00;;;;;;;18.53;5.97;;;9.40;99.90;;;;;;5115339;28;20461;-68
2022/05/10 03:27:27;;;;;;;11.00;6.17;;;9.40;99.90;;;;;;5114442;28;20191;-68
2022/05/10 03:29:52;;;;;;;9.33;6.30;;;9.40;99.90;;;;;;5114411;28;20191;-69
2022/05/10 03:32:18;;;;;;;10.23;6.60;;;9.40;99.90;;;;;;5118645;28;20456;-69
2022/05/10 03:34:57;;;;;;;8.20;5.10;;;9.40;99.90;;;;;;5117696;28;20720;-69
2022/05/10 03:37:25;;;;;;;12.20;5.97;;;9.30;99.90;;;;;;5121291;27;20657;-68
2022/05/10 03:39:51;;;;;;;13.10;6.00;;;9.30;99.90;;;;;;5111607;27;20425;-69
2022/05/10 03:42:16;;;;;;;10.40;5.53;;;9.30;99.90;;;;;;5100665;27;20490;-68
2022/05/10 03:44:42;;;;;;;8.03;5.30;;;9.20;99.90;;;;;;5095257;28;20216;-68
2022/05/10 03:47:09;;;;;;;8.43;5.57;;;9.20;99.90;;;;;;5115019;27;20185;-69
2022/05/10 03:49:35;;;;;;;8.40;5.40;;;9.20;99.90;;;;;;5125509;27;20183;-69
2022/05/10 03:52:01;;;;;;;8.83;5.30;;;9.30;99.90;;;;;;5121088;27;20835;-68
2022/05/10 03:54:27;;;;;;;7.70;5.27;;;9.20;99.90;;;;;;5122875;27;20563;-67
2022/05/10 03:56:53;;;;;;;9.33;5.50;;;9.20;99.90;;;;;;5116936;27;20183;-69
2022/05/10 03:59:19;;;;;;;8.90;5.50;;;9.20;99.90;;;;;;5123257;27;20942;-69
2022/05/10 04:01:46;;;;;;;8.30;4.33;;;9.20;99.90;;;;;;5119012;27;20195;-69
2022/05/10 04:04:11;;;;;;;10.30;5.97;;;9.20;99.90;;;;;;5121615;27;20477;-70
2022/05/10 04:06:38;;;;;;;10.17;5.50;;;9.10;99.90;;;;;;5112534;27;20469;-68
2022/05/10 04:09:04;;;;;;;12.03;6.97;;;9.10;99.90;;;;;;5122310;27;20192;-67
2022/05/10 04:11:30;;;;;;;12.70;6.60;;;9.10;99.90;;;;;;5128917;27;20426;-70
2022/05/10 04:13:56;;;;;;;13.73;6.27;;;9.10;99.90;;;;;;5129552;27;20456;-68
2022/05/10 04:16:22;;;;;;;11.23;6.20;;;9.10;99.90;;;;;;5119144;27;20222;-69
2022/05/10 04:18:48;;;;;;;12.33;6.50;;;9.10;99.90;;;;;;5128625;27;20214;-69
2022/05/10 04:21:14;;;;;;;10.00;6.27;;;9.10;99.90;;;;;;5126770;27;20424;-69
2022/05/10 04:23:40;;;;;;;10.87;6.70;;;9.20;99.90;;;;;;5127633;27;20431;-68
2022/05/10 04:26:09;;;;;;;13.40;5.77;;;9.20;99.90;;;;;;5110175;27;20465;-69
2022/05/10 04:28:35;;;;;;;17.00;6.90;;;9.20;99.90;;;;;;5111888;27;20633;-70
2022/05/10 04:31:02;;;;;;;10.17;6.23;;;9.10;99.90;;;;;;5121036;27;20428;-70
2022/05/10 04:33:28;;;;;;;12.03;6.70;;;9.10;99.90;;;;;;5092078;28;20436;-70
2022/05/10 04:35:53;;;;;;;10.20;6.03;;;9.10;99.90;;;;;;5122315;27;20456;-69
2022/05/10 04:38:19;;;;;;;10.80;6.87;;;9.20;99.90;;;;;;5118652;27;20199;-68
2022/05/10 04:43:31;;;;;;;11.90;7.23;;;9.40;99.90;;;;;;5114726;27;20895;-69
2022/05/10 04:45:57;;;;;;;11.47;6.90;;;9.50;99.90;;;;;;5120325;27;20489;-70
2022/05/10 04:48:23;;;;;;;12.87;7.83;;;9.60;99.90;;;;;;5115602;27;20446;-69
2022/05/10 04:50:48;;;;;;;12.30;6.90;;;9.70;99.90;;;;;;5126412;27;20230;-70
2022/05/10 04:53:15;;;;;;;12.67;6.97;;;9.80;99.90;;;;;;5123642;27;20264;-70
2022/05/10 04:55:40;;;;;;;12.60;7.27;;;9.80;99.90;;;;;;5112967;27;20706;-70
2022/05/10 04:58:06;;;;;;;12.33;7.00;;;9.90;99.90;;;;;;5122005;27;20416;-69
2022/05/10 05:00:32;;;;;;;8.83;5.93;;;10.00;99.90;;;;;;5124563;27;20267;-69
2022/05/10 05:02:58;;;;;;;10.37;6.00;;;10.10;99.90;;;;;;5122237;27;20262;-67
2022/05/10 05:05:24;;;;;;;12.60;7.17;;;10.10;99.90;;;;;;5112744;27;20203;-67
2022/05/10 05:08:00;;;;;;;13.27;6.83;;;10.20;99.90;;;;;;5115326;27;20868;-65
2022/05/10 05:10:26;;;;;;;12.20;7.17;;;10.30;99.90;;;;;;5109862;27;20405;-68
2022/05/10 05:12:52;;;;;;;12.47;6.73;;;10.40;99.90;;;;;;5117551;27;20906;-66
2022/05/10 05:15:18;;;;;;;13.03;6.90;;;10.50;99.90;;;;;;5109315;27;20207;-67
2022/05/10 05:17:44;;;;;;;11.43;6.50;;;10.50;99.90;;;;;;5115253;27;20179;-67
2022/05/10 05:20:11;;;;;;;17.50;7.23;;;10.60;99.90;;;;;;5111033;27;20502;-67
2022/05/10 05:22:37;;;;;;;10.03;6.23;;;10.70;99.90;;;;;;5104211;27;20462;-67
2022/05/10 05:25:04;;;;;;;14.50;6.73;;;10.90;99.90;;;;;;5126969;27;20483;-67
2022/05/10 05:27:30;;;;;;;9.60;6.17;;;11.00;99.90;;;;;;5121265;27;20452;-67
2022/05/10 05:29:56;;;;;;;8.63;5.80;;;11.10;99.90;;;;;;5114446;27;20471;-68
2022/05/10 05:32:28;;;;;;;8.60;6.27;;;11.20;99.90;;;;;;5114663;27;20183;-66
2022/05/10 05:34:56;;;;;;;17.30;6.83;;;11.30;99.90;;;;;;5112563;27;20305;-67
2022/05/10 05:37:33;;;;;;;9.90;6.40;;;11.40;99.90;;;;;;5118491;27;20980;-68
2022/05/10 05:40:11;;;;;;;12.93;7.00;;;11.50;99.90;;;;;;5106141;27;20422;-67
2022/05/10 05:42:37;;;;;;;13.10;6.57;;;11.60;99.90;;;;;;5115016;27;20410;-68
2022/05/10 05:45:04;;;;;;;10.40;6.53;;;11.70;99.90;;;;;;5116098;27;20781;-68
2022/05/10 05:47:30;;;;;;;11.60;6.93;;;11.90;99.90;;;;;;5089040;28;20187;-67
2022/05/10 05:49:56;;;;;;;13.00;7.93;;;12.00;99.90;;;;;;5117677;27;20417;-67
2022/05/10 05:52:22;;;;;;;13.80;6.73;;;12.20;99.90;;;;;;5113076;27;20844;-67
2022/05/10 05:54:52;;;;;;;11.30;6.07;;;12.40;99.90;;;;;;5114249;27;20290;-67
2022/05/10 05:57:19;;;;;;;15.03;7.00;;;12.60;99.90;;;;;;5118294;27;20805;-67
2022/05/10 05:59:44;;;;;;;10.57;5.70;;;12.70;99.90;;;;;;5114525;27;20443;-69
2022/05/10 06:02:18;;;;;;;13.43;6.53;;;12.80;99.90;;;;;;5118752;27;20436;-67
2022/05/10 06:04:44;;;;;;;12.30;6.67;;;12.90;99.90;;;;;;5125638;27;20207;-67
2022/05/10 06:07:10;;;;;;;9.63;6.00;;;13.00;99.90;;;;;;5113984;27;20432;-67
2022/05/10 06:09:37;;;;;;;9.13;5.33;;;13.10;99.90;;;;;;5109059;27;20916;-67
2022/05/10 06:12:03;;;;;;;17.23;6.33;;;13.20;99.90;;;;;;5110188;27;20538;-67
2022/05/10 06:14:29;;;;;;;11.23;6.17;;;13.30;99.90;;;;;;5110496;27;20476;-67
2022/05/10 06:16:57;;;;;;;15.23;6.47;;;13.40;99.90;;;;;;5109194;27;20421;-67
2022/05/10 06:19:23;;;;;;;11.57;6.43;;;13.40;99.90;;;;;;5111602;27;20193;-67
2022/05/10 06:21:49;;;;;;;12.70;6.40;;;13.60;99.90;;;;;;5109440;27;20879;-67
2022/05/10 06:24:15;;;;;;;9.23;5.80;;;13.70;99.90;;;;;;5109520;27;20428;-66
2022/05/10 06:26:41;;;;;;;11.90;6.60;;;13.80;99.90;;;;;;5103972;27;20447;-67
2022/05/10 06:29:06;;;;;;;8.53;5.30;;;14.00;99.90;;;;;;5104658;27;20182;-67
2022/05/10 06:31:32;;;;;;;8.93;6.03;;;14.10;99.90;;;;;;5105680;27;20237;-67
2022/05/10 06:33:57;;;;;;;8.70;6.20;;;14.20;99.90;;;;;;5108477;27;20202;-67
2022/05/10 06:36:23;;;;;;;10.50;5.37;;;14.40;99.90;;;;;;5107026;27;20674;-66
2022/05/10 06:38:49;;;;;;;8.77;5.50;;;14.50;99.90;;;;;;5108315;27;20179;-68
2022/05/10 06:41:15;;;;;;;9.73;4.27;;;14.60;99.90;;;;;;5106795;27;20260;-67
2022/05/10 06:43:40;;;;;;;9.50;5.13;;;14.80;99.90;;;;;;5108522;27;20479;-67
2022/05/10 06:46:13;;;;;;;7.53;4.27;;;15.00;99.90;;;;;;5108763;27;20202;-67
2022/05/10 06:48:39;;;;;;;8.60;4.53;;;15.20;99.90;;;;;;5107688;27;20187;-68
2022/05/10 06:51:09;;;;;;;16.40;5.53;;;15.40;99.90;;;;;;5110735;27;20445;-68
2022/05/10 06:53:36;;;;;;;7.00;4.57;;;15.60;99.90;;;;;;5107027;27;20417;-68
2022/05/10 06:56:03;;;;;;;11.57;5.07;;;15.90;99.90;;;;;;5108260;27;21242;-67
2022/05/10 06:58:28;;;;;;;16.10;5.27;;;16.20;99.90;;;;;;5113429;27;20445;-67
2022/05/10 07:00:54;;;;;;;8.50;4.27;;;16.40;99.90;;;;;;5114173;27;20882;-67
2022/05/10 07:03:32;;;;;;;8.30;4.90;;;16.60;99.90;;;;;;5112026;27;20183;-67
2022/05/10 07:06:00;;;;;;;11.30;4.00;;;16.90;99.90;;;;;;5112712;27;20210;-67
2022/05/10 07:08:26;;;;;;;7.30;4.27;;;17.10;99.90;;;;;;5116418;27;20987;-68
2022/05/10 07:10:52;;;;;;;7.43;4.20;;;17.40;99.40;;;;;;5114203;27;20477;-67
2022/05/10 07:13:20;;;;;;;7.03;3.90;;;17.50;98.80;;;;;;5111363;27;20416;-66
2022/05/10 07:15:46;;;;;;;14.03;3.93;;;17.60;98.60;;;;;;5110260;27;20847;-67
2022/05/10 07:18:12;;;;;;;6.00;3.00;;;17.90;98.80;;;;;;5106980;28;20458;-69
2022/05/10 07:20:39;;;;;;;6.90;4.07;;;18.20;97.50;;;;;;5108984;27;21765;-68
2022/05/10 07:23:05;;;;;;;7.40;4.53;;;18.40;98.00;;;;;;5106387;28;20402;-68
2022/05/10 07:25:31;;;;;;;8.50;4.13;;;18.70;97.90;;;;;;5109959;28;20461;-68
2022/05/10 07:27:57;;;;;;;8.17;4.97;;;18.90;97.10;;;;;;5109612;27;20405;-68
2022/05/10 07:30:25;;;;;;;20.53;5.23;;;19.40;96.80;;;;;;5106800;28;20183;-68
2022/05/10 07:32:51;;;;;;;5.30;3.47;;;19.90;95.30;;;;;;5108531;28;20414;-68
2022/05/10 07:36:23;;;;;;;5.90;3.63;;;20.60;93.70;;;;;;5108313;28;20464;-66
2022/05/10 07:38:05;;;;;;;5.00;3.20;;;21.20;93.90;;;;;;5107968;28;20453;-67
2022/05/10 07:40:31;;;;;;;5.23;3.40;;;21.90;91.70;;;;;;5109080;28;20461;-68
2022/05/10 07:42:56;;;;;;;5.10;3.50;;;22.60;90.40;;;;;;5084726;28;20907;-67
2022/05/10 07:45:22;;;;;;;4.80;3.10;;;23.20;88.80;;;;;;5106296;28;20247;-67
2022/05/10 07:47:48;;;;;;;7.87;4.30;;;23.80;87.80;;;;;;5087602;28;20194;-67
2022/05/10 07:50:13;;;;;;;11.15;3.20;;;24.50;83.00;;;;;;5109746;28;20247;-69
2022/05/10 07:52:40;;;;;;;4.45;2.97;;;25.20;80.40;;;;;;5103161;28;20257;-68
2022/05/10 07:55:08;;;;;;;8.27;3.35;;;25.30;80.20;;;;;;5105419;28;20222;-65
2022/05/10 07:57:33;;;;;;;7.38;3.50;;;25.70;80.10;;;;;;5106047;28;20898;-67
2022/05/10 07:59:59;;;;;;;4.95;3.38;;;25.70;77.70;;;;;;5106064;28;20175;-67
2022/05/10 08:02:25;;;;;;;6.55;3.60;;;25.80;77.60;;;;;;5107701;28;20646;-67
2022/05/10 08:04:50;;;;;;;4.78;2.65;;;26.20;75.40;;;;;;5107914;28;20194;-68
2022/05/10 08:07:16;;;;;;;6.55;3.13;;;26.20;75.20;;;;;;5105037;28;20673;-67
2022/05/10 08:09:41;;;;;;;7.05;3.15;;;26.30;74.20;;;;;;5105763;28;20248;-68
2022/05/10 08:12:08;;;;;;;6.35;3.25;;;26.10;75.50;;;;;;5105897;28;20209;-67
2022/05/10 08:14:34;;;;;;;7.03;3.60;;;25.90;74.40;;;;;;5107658;28;20206;-66
2022/05/10 08:16:59;;;;;;;4.90;3.08;;;25.80;73.80;;;;;;5109148;28;20267;-67
2022/05/10 08:19:25;;;;;;;8.05;3.55;;;26.00;72.60;;;;;;5109308;28;20761;-66
2022/05/10 08:21:55;;;;;;;3.80;2.42;;;25.90;72.50;;;;;;5106052;28;20176;-68
2022/05/10 08:24:22;;;;;;;4.60;2.80;;;25.80;75.70;;;;;;5109880;27;20678;-66
2022/05/10 08:26:48;;;;;;;5.50;2.88;;;26.10;73.90;;;;;;5104966;27;20191;-67
2022/05/10 08:29:13;;;;;;;5.32;3.42;;;25.80;72.80;;;;;;5106673;27;20183;-67
2022/05/10 08:31:40;;;;;;;8.55;3.65;;;26.20;73.00;;;;;;5107953;27;20179;-68
2022/05/10 08:34:06;;;;;;;4.85;3.13;;;26.30;71.90;;;;;;5110631;27;20187;-67
2022/05/10 08:36:32;;;;;;;6.55;3.08;;;26.50;71.60;;;;;;5109000;27;20274;-67
2022/05/10 08:38:58;;;;;;;6.60;3.33;;;26.70;71.70;;;;;;5088707;27;20827;-67
2022/05/10 08:41:35;;;;;;;6.32;3.70;;;27.30;69.60;;;;;;5117158;27;20187;-68
2022/05/10 08:44:12;;;;;;;5.13;3.03;;;27.20;69.70;;;;;;5119974;27;20197;-68
2022/05/10 08:46:41;;;;;;;5.22;2.70;;;27.40;69.00;;;;;;5111903;27;20186;-66
2022/05/10 08:49:32;;;;;;;5.28;3.17;;;27.40;69.60;;;;;;5117822;27;20231;-67
2022/05/10 08:51:58;;;;;;;6.43;3.20;;;28.40;65.80;;;;;;5117549;27;20282;-67
2022/05/10 08:54:25;;;;;;;8.13;3.53;;;28.10;66.70;;;;;;5109409;27;20290;-69
2022/05/10 08:56:57;;;;;;;5.82;2.88;;;27.80;67.50;;;;;;5117260;27;20190;-68
2022/05/10 08:59:49;;;;;;;5.20;3.20;;;27.40;66.60;;;;;;5120560;27;20187;-68
2022/05/10 09:02:18;;;;;;;5.30;2.58;;;27.70;65.90;;;;;;5113212;27;20270;-66
2022/05/10 09:05:01;;;;;;;5.28;3.30;;;27.30;64.80;;;;;;5118152;27;20246;-68
2022/05/10 09:07:59;;;;;;;5.45;3.03;;;26.80;67.90;;;;;;5115048;27;20283;-67
2022/05/10 09:10:41;;;;;;;3.67;2.80;;;26.60;68.00;;;;;;5115608;27;20228;-68
2022/05/10 09:13:11;;;;;;;4.93;3.47;;;26.20;68.40;;;;;;5108034;27;20186;-67
2022/05/10 09:15:51;;;;;;;6.88;3.10;;;26.10;70.10;;;;;;5111151;27;20210;-68
2022/05/10 09:18:26;;;;;;;3.72;2.20;;;26.20;66.50;;;;;;5109004;27;20182;-68
2022/05/10 09:21:06;;;;;;;4.53;2.20;;;26.40;67.10;;;;;;5109674;27;20179;-67
2022/05/10 09:23:40;;;;;;;4.97;2.78;;;26.40;65.80;;;;;;5110187;27;20190;-67
2022/05/10 09:26:08;;;;;;;6.30;2.50;;;26.50;68.70;;;;;;5107393;27;20194;-68
2022/05/10 09:29:22;;;;;;;4.35;2.28;;;26.70;66.20;;;;;;5108240;27;20211;-65
2022/05/10 09:34:47;;;;;;;8.43;2.15;;;26.50;66.10;;;;;;5119490;27;20294;-66
2022/05/10 09:37:21;;;;;;;6.18;3.50;;;26.20;62.50;;;;;;5085181;28;21690;-66
2022/05/10 09:39:59;;;;;;;4.68;2.38;;;25.80;64.40;;;;;;5112322;27;20260;-66
2022/05/10 09:42:37;;;;;;;3.60;1.85;;;25.60;63.20;;;;;;5117493;27;20752;-63
2022/05/10 09:45:02;;;;;;;5.38;2.55;;;25.70;60.30;;;;;;5113108;27;20222;-66
2022/05/10 09:47:29;;;;;;;5.57;3.22;;;25.90;61.80;;;;;;5111990;27;20179;-66
2022/05/10 09:50:10;;;;;;;4.95;2.55;;;25.60;66.50;;;;;;5114083;27;20188;-64
2022/05/10 09:52:36;;;;;;;4.57;2.63;;;25.90;66.60;;;;;;5119033;27;20732;-67
2022/05/10 09:55:07;;;;;;;4.22;2.15;;;25.90;64.30;;;;;;5109321;27;20411;-67
2022/05/10 09:57:39;;;;;;;2.83;1.98;;;26.10;66.00;;;;;;5118898;27;20183;-68
2022/05/10 10:00:08;;;;;;;3.80;2.30;;;26.30;62.70;;;;;;5120413;27;20187;-66
2022/05/10 10:02:38;;;;;;;4.05;2.40;;;26.20;61.10;;;;;;5118323;27;20186;-68
2022/05/10 10:05:29;;;;;;;4.07;2.33;;;26.00;60.50;;;;;;5106755;27;20749;-68
2022/05/10 10:07:57;;;;;;;5.07;2.22;;;25.90;64.10;;;;;;5117805;27;20187;-68
2022/05/10 10:10:35;;;;;;;4.43;1.98;;;25.40;60.90;;;;;;5118657;27;20191;-67
2022/05/10 10:13:28;;;;;;;4.85;2.30;;;25.20;63.90;;;;;;5114366;27;20717;-67
2022/05/10 10:15:55;;;;;;;3.17;1.40;;;25.30;60.60;;;;;;5112581;27;20210;-67
2022/05/10 10:18:42;;;;;;;4.07;2.30;;;25.30;62.50;;;;;;5116849;27;20190;-68
2022/05/10 10:21:11;;;;;;;4.20;2.00;;;25.10;60.80;;;;;;5116461;27;20181;-68
2022/05/10 10:23:48;;;;;;;5.93;2.57;;;24.80;64.50;;;;;;5126559;27;20174;-68
2022/05/10 10:26:17;;;;;;;2.60;1.40;;;24.80;64.20;;;;;;5125074;27;20455;-67
2022/05/10 10:29:19;;;;;;;4.00;1.80;;;24.60;63.10;;;;;;5123387;27;20436;-68
2022/05/10 10:31:54;;;;;;;3.80;1.83;;;24.80;62.90;;;;;;5129035;27;20487;-66
2022/05/10 10:34:37;;;;;;;3.50;2.00;;;24.90;62.80;;;;;;5126915;27;20440;-69
2022/05/10 10:37:19;;;;;;;4.03;1.90;;;24.80;59.70;;;;;;5117833;27;20419;-67
2022/05/10 10:39:57;;;;;;;5.00;2.27;;;25.10;58.80;;;;;;5112647;27;20439;-70
2022/05/10 10:42:32;;;;;;;2.90;1.77;;;25.10;63.20;;;;;;5108240;27;20416;-69
2022/05/10 10:45:01;;;;;;;2.97;1.80;;;25.00;60.60;;;;;;5102656;27;21052;-70
2022/05/10 10:47:47;;;;;;;4.80;2.10;;;25.30;58.80;;;;;;5121159;27;20425;-69
2022/05/10 10:50:39;;;;;;;3.60;1.70;;;25.30;58.10;;;;;;5115902;27;20459;-70
2022/05/10 10:53:09;;;;;;;4.40;1.73;;;25.10;63.80;;;;;;5103140;27;20436;-69
2022/05/10 10:55:44;;;;;;;3.40;1.87;;;25.00;60.10;;;;;;5105491;27;20508;-69
2022/05/10 10:58:28;;;;;;;4.03;2.40;;;25.10;62.10;;;;;;5120198;27;21128;-69
2022/05/10 11:01:21;;;;;;;2.73;1.40;;;25.10;61.60;;;;;;5115511;27;20451;-70
2022/05/10 11:04:01;;;;;;;3.80;2.00;;;25.20;61.20;;;;;;5110897;27;20798;-70
2022/05/10 11:06:31;;;;;;;3.57;1.80;;;25.10;58.50;;;;;;5118401;27;20291;-70
2022/05/10 11:09:12;;;;;;;3.50;1.97;;;25.60;56.50;;;;;;5117540;27;20477;-70
2022/05/10 11:11:55;;;;;;;4.53;1.80;;;25.70;56.50;;;;;;5116816;27;20422;-69
2022/05/10 11:14:36;;;;;;;4.57;1.90;;;25.50;57.10;;;;;;5117531;27;20467;-69
2022/05/10 11:17:38;;;;;;;4.60;2.53;;;25.40;56.90;;;;;;5110490;27;20444;-68
2022/05/10 11:20:15;;;;;;;5.60;1.60;;;25.50;58.00;;;;;;5110996;27;21995;-67
2022/05/10 11:22:46;;;;;;;2.50;1.53;;;25.80;59.40;;;;;;5110542;27;20202;-68
2022/05/10 11:25:41;;;;;;;3.60;2.00;;;25.80;58.20;;;;;;5109203;27;20222;-68
2022/05/10 11:28:16;;;;;;;2.30;1.30;;;25.80;59.00;;;;;;5111676;27;20198;-69
2022/05/10 11:31:10;;;;;;;5.53;2.50;;;25.90;59.50;;;;;;5113231;28;20629;-69
2022/05/10 11:33:57;;;;;;;11.10;2.00;;;26.20;59.90;;;;;;5109431;28;20552;-68
2022/05/10 11:36:42;;;;;;;3.60;2.13;;;26.30;59.30;;;;;;5107719;28;20201;-69
2022/05/10 11:39:25;;;;;;;3.60;2.10;;;26.50;57.60;;;;;;5111468;28;20250;-69
2022/05/10 11:41:54;;;;;;;3.80;2.50;;;26.60;59.70;;;;;;5113637;28;20550;-69
2022/05/10 11:44:54;;;;;;;2.90;1.80;;;26.50;58.60;;;;;;5114771;28;20199;-68
2022/05/10 11:47:44;;;;;;;7.60;2.77;;;26.40;58.40;;;;;;5109760;28;20183;-67
2022/05/10 11:50:33;;;;;;;2.90;1.73;;;26.30;58.50;;;;;;5109708;28;20171;-68
2022/05/10 11:53:22;;;;;;;3.63;2.33;;;26.30;58.50;;;;;;5112390;28;20183;-69
2022/05/10 11:55:59;;;;;;;3.80;1.77;;;26.50;57.50;;;;;;5096624;28;20653;-69
2022/05/10 11:58:27;;;;;;;7.17;2.33;;;26.20;57.90;;;;;;5106510;27;20193;-69
2022/05/10 12:00:57;;;;;;;3.57;1.70;;;25.80;57.50;;;;;;5114510;27;20178;-68
2022/05/10 12:03:42;;;;;;;4.17;2.27;;;25.70;57.30;;;;;;5109380;27;20178;-69
2022/05/10 12:06:23;;;;;;;4.67;2.30;;;25.60;57.60;;;;;;5110255;27;20211;-69
2022/05/10 12:08:54;;;;;;;4.80;2.20;;;25.60;59.50;;;;;;5110534;27;20179;-69
2022/05/10 12:11:30;;;;;;;3.03;2.10;;;25.80;58.20;;;;;;5110023;27;20621;-70
2022/05/10 12:22:16;;;;;;;6.77;2.17;;;25.60;59.60;;;;;;5111502;27;20838;-67
2022/05/10 12:24:45;;;;;;;4.03;1.50;;;25.40;59.60;;;;;;5113336;27;20487;-67
2022/05/10 12:27:11;;;;;;;6.90;2.47;;;25.30;62.30;;;;;;5112709;27;20425;-68
2022/05/10 12:29:40;;;;;;;7.43;2.67;;;25.20;61.80;;;;;;5100702;27;20456;-68
2022/05/10 12:32:18;;;;;;;7.27;2.30;;;25.20;61.70;;;;;;5107493;27;20179;-68
2022/05/10 12:34:45;;;;;;;4.60;2.37;;;25.50;60.90;;;;;;5109263;27;20936;-68
2022/05/10 12:37:31;;;;;;;4.53;2.33;;;25.60;62.60;;;;;;5110869;27;20441;-68
2022/05/10 12:40:09;;;;;;;3.53;1.80;;;25.90;62.80;;;;;;5109542;27;20532;-69
2022/05/10 12:42:53;;;;;;;3.77;2.20;;;26.30;61.70;;;;;;5105099;27;20190;-68
2022/05/10 12:45:54;;;;;;;3.30;2.27;;;26.40;60.20;;;;;;5108442;27;20230;-70
2022/05/10 12:48:39;;;;;;;3.13;1.80;;;26.40;57.90;;;;;;5088706;27;20191;-67
2022/05/10 12:51:38;;;;;;;6.63;2.40;;;26.40;58.80;;;;;;5106004;27;20186;-68
2022/05/10 12:54:13;;;;;;;4.37;2.13;;;26.30;60.30;;;;;;5106847;28;20262;-68
2022/05/10 12:56:41;;;;;;;3.30;2.10;;;25.80;60.10;;;;;;5107494;28;20419;-67
2022/05/10 12:59:45;;;;;;;5.70;2.20;;;25.70;58.90;;;;;;5106660;28;20600;-67
2022/05/10 13:02:13;;;;;;;4.60;2.03;;;25.50;59.50;;;;;;5106938;28;20836;-67
2022/05/10 13:04:44;;;;;;;3.63;2.07;;;25.80;60.40;;;;;;5106136;28;20230;-69
2022/05/10 13:07:38;;;;;;;8.13;2.37;;;26.00;58.80;;;;;;5106443;28;20179;-68
2022/05/10 13:10:11;;;;;;;2.87;1.90;;;25.90;58.60;;;;;;5087260;28;20589;-67
2022/05/10 13:12:46;;;;;;;4.93;2.13;;;25.80;59.50;;;;;;5109136;28;20433;-68
2022/05/10 13:15:17;;;;;;;3.80;2.67;;;25.40;59.80;;;;;;5112150;28;20563;-67
2022/05/10 13:17:47;;;;;;;4.63;2.10;;;25.20;61.80;;;;;;5105111;28;20200;-68
2022/05/10 13:20:14;;;;;;;3.57;2.03;;;25.20;60.60;;;;;;5110626;28;20479;-68
2022/05/10 13:23:01;;;;;;;4.60;2.27;;;24.90;62.30;;;;;;5107322;28;20413;-68
2022/05/10 13:25:31;;;;;;;5.40;2.00;;;24.80;62.00;;;;;;5109586;28;20519;-66
2022/05/10 13:28:06;;;;;;;5.73;1.97;;;25.10;60.70;;;;;;5115776;28;20428;-67